sensor_id;sensor_type;location;lat;lon;timestamp;temperature;humidity
17202;DHT22;8717;53.588;10.176;2024-02-21T00:01:35;8.30;99.90
17202;DHT22;8717;53.588;10.176;2024-02-21T00:04:02;8.30;99.90
17202;DHT22;8717;53.588;10.176;2024-02-21T00:06:29;8.30;99.90
17202;DHT22;8717;53.588;10.176;2024-02-21T00:08:57;8.30;99.90
17202;DHT22;8717;53.588;10.176;2024-02-21T00:11:24;8.30;99.90
17202;DHT22;8717;53.588;10.176;2024-02-21T00:13:51;8.30;99.90
17202;DHT22;8717;53.588;10.176;2024-02-21T00:16:18;8.30;99.90
17202;DHT22;8717;53.588;10.176;2024-02-21T00:18:45;8.30;99.90
17202;DHT22;8717;53.588;10.176;2024-02-21T00:21:12;8.30;99.90
17202;DHT22;8717;53.588;10.176;2024-02-21T00:23:44;8.30;99.90
17202;DHT22;8717;53.588;10.176;2024-02-21T00:26:14;8.30;99.90
17202;DHT22;8717;53.588;10.176;2024-02-21T00:28:41;8.30;99.90
17202;DHT22;8717;53.588;10.176;2024-02-21T00:31:07;8.30;99.90
17202;DHT22;8717;53.588;10.176;2024-02-21T00:33:34;8.20;99.90
17202;DHT22;8717;53.588;10.176;2024-02-21T00:36:01;8.20;99.90
17202;DHT22;8717;53.588;10.176;2024-02-21T00:38:28;8.20;99.90
17202;DHT22;8717;53.588;10.176;2024-02-21T00:40:54;8.20;99.90
17202;DHT22;8717;53.588;10.176;2024-02-21T00:43:23;8.20;99.90
17202;DHT22;8717;53.588;10.176;2024-02-21T00:45:50;8.20;99.90
17202;DHT22;8717;53.588;10.176;2024-02-21T00:48:17;8.20;99.90
17202;DHT22;8717;53.588;10.176;2024-02-21T00:50:44;8.20;99.90
17202;DHT22;8717;53.588;10.176;2024-02-21T00:53:11;8.20;99.90
17202;DHT22;8717;53.588;10.176;2024-02-21T00:55:38;8.20;99.90
17202;DHT22;8717;53.588;10.176;2024-02-21T00:58:05;8.20;99.90
17202;DHT22;8717;53.588;10.176;2024-02-21T01:00:33;8.20;99.90
17202;DHT22;8717;53.588;10.176;2024-02-21T01:03:00;8.20;99.90
17202;DHT22;8717;53.588;10.176;2024-02-21T01:05:28;8.20;99.90
17202;DHT22;8717;53.588;10.176;2024-02-21T01:07:55;8.20;99.90
17202;DHT22;8717;53.588;10.176;2024-02-21T01:10:22;8.20;99.90
17202;DHT22;8717;53.588;10.176;2024-02-21T01:12:49;8.20;99.90
17202;DHT22;8717;53.588;10.176;2024-02-21T01:15:16;8.20;99.90
17202;DHT22;8717;53.588;10.176;2024-02-21T01:17:44;8.20;99.90
17202;DHT22;8717;53.588;10.176;2024-02-21T01:20:11;8.20;99.90
17202;DHT22;8717;53.588;10.176;2024-02-21T01:22:38;8.20;99.90
17202;DHT22;8717;53.588;10.176;2024-02-21T01:25:05;8.20;99.90
17202;DHT22;8717;53.588;10.176;2024-02-21T01:27:32;8.20;99.90
17202;DHT22;8717;53.588;10.176;2024-02-21T01:29:59;8.20;99.90
17202;DHT22;8717;53.588;10.176;2024-02-21T01:32:26;8.20;99.90
17202;DHT22;8717;53.588;10.176;2024-02-21T01:34:54;8.20;99.90
17202;DHT22;8717;53.588;10.176;2024-02-21T01:37:21;8.20;99.90
17202;DHT22;8717;53.588;10.176;2024-02-21T01:39:48;8.20;99.90
17202;DHT22;8717;53.588;10.176;2024-02-21T01:42:16;8.20;99.90
17202;DHT22;8717;53.588;10.176;2024-02-21T01:44:43;8.20;99.90
17202;DHT22;8717;53.588;10.176;2024-02-21T01:47:11;8.20;99.90
17202;DHT22;8717;53.588;10.176;2024-02-21T01:49:39;8.20;99.90
17202;DHT22;8717;53.588;10.176;2024-02-21T01:52:08;8.20;99.90
17202;DHT22;8717;53.588;10.176;2024-02-21T01:54:39;8.20;99.90
17202;DHT22;8717;53.588;10.176;2024-02-21T01:57:06;8.20;99.90
17202;DHT22;8717;53.588;10.176;2024-02-21T01:59:33;8.20;99.90
17202;DHT22;8717;53.588;10.176;2024-02-21T02:02:02;8.20;99.90
17202;DHT22;8717;53.588;10.176;2024-02-21T02:04:29;8.20;99.90
17202;DHT22;8717;53.588;10.176;2024-02-21T02:06:57;8.20;99.90
17202;DHT22;8717;53.588;10.176;2024-02-21T02:09:27;8.10;99.90
17202;DHT22;8717;53.588;10.176;2024-02-21T02:11:55;8.10;99.90
17202;DHT22;8717;53.588;10.176;2024-02-21T02:14:24;8.10;99.90
17202;DHT22;8717;53.588;10.176;2024-02-21T02:16:51;8.10;99.90
17202;DHT22;8717;53.588;10.176;2024-02-21T02:19:18;8.00;99.90
17202;DHT22;8717;53.588;10.176;2024-02-21T02:21:46;8.00;99.90
17202;DHT22;8717;53.588;10.176;2024-02-21T02:24:20;8.00;99.90
17202;DHT22;8717;53.588;10.176;2024-02-21T02:26:47;8.00;99.90
17202;DHT22;8717;53.588;10.176;2024-02-21T02:29:14;8.00;99.90
17202;DHT22;8717;53.588;10.176;2024-02-21T02:31:42;8.00;99.90
17202;DHT22;8717;53.588;10.176;2024-02-21T02:34:08;8.00;99.90
17202;DHT22;8717;53.588;10.176;2024-02-21T02:36:35;8.00;99.90
17202;DHT22;8717;53.588;10.176;2024-02-21T02:39:02;8.00;99.90
17202;DHT22;8717;53.588;10.176;2024-02-21T02:41:31;7.90;99.90
17202;DHT22;8717;53.588;10.176;2024-02-21T02:43:57;7.90;99.90
17202;DHT22;8717;53.588;10.176;2024-02-21T02:46:24;7.90;99.90
17202;DHT22;8717;53.588;10.176;2024-02-21T02:48:51;7.90;99.90
17202;DHT22;8717;53.588;10.176;2024-02-21T02:51:18;7.90;99.90
17202;DHT22;8717;53.588;10.176;2024-02-21T02:53:45;7.90;99.90
17202;DHT22;8717;53.588;10.176;2024-02-21T02:56:14;7.90;99.90
17202;DHT22;8717;53.588;10.176;2024-02-21T02:58:42;7.90;99.90
17202;DHT22;8717;53.588;10.176;2024-02-21T03:01:09;7.90;99.90
17202;DHT22;8717;53.588;10.176;2024-02-21T03:03:36;7.90;99.90
17202;DHT22;8717;53.588;10.176;2024-02-21T03:06:03;8.00;99.90
17202;DHT22;8717;53.588;10.176;2024-02-21T03:08:31;8.00;99.90
17202;DHT22;8717;53.588;10.176;2024-02-21T03:10:58;8.00;99.90
17202;DHT22;8717;53.588;10.176;2024-02-21T03:13:25;8.00;99.90
17202;DHT22;8717;53.588;10.176;2024-02-21T03:15:54;8.00;99.90
17202;DHT22;8717;53.588;10.176;2024-02-21T03:18:20;8.10;99.90
17202;DHT22;8717;53.588;10.176;2024-02-21T03:20:47;8.10;99.90
17202;DHT22;8717;53.588;10.176;2024-02-21T03:23:14;8.10;99.90
17202;DHT22;8717;53.588;10.176;2024-02-21T03:25:41;8.10;99.90
17202;DHT22;8717;53.588;10.176;2024-02-21T03:28:08;8.10;99.90
17202;DHT22;8717;53.588;10.176;2024-02-21T03:30:34;8.10;99.90
17202;DHT22;8717;53.588;10.176;2024-02-21T03:33:03;8.10;99.90
17202;DHT22;8717;53.588;10.176;2024-02-21T03:35:30;8.10;99.90
17202;DHT22;8717;53.588;10.176;2024-02-21T03:37:57;8.10;99.90
17202;DHT22;8717;53.588;10.176;2024-02-21T03:40:24;8.10;99.90
17202;DHT22;8717;53.588;10.176;2024-02-21T03:42:51;8.10;99.90
17202;DHT22;8717;53.588;10.176;2024-02-21T03:45:18;8.10;99.90
17202;DHT22;8717;53.588;10.176;2024-02-21T03:47:45;8.10;99.90
17202;DHT22;8717;53.588;10.176;2024-02-21T03:50:13;8.20;99.90
17202;DHT22;8717;53.588;10.176;2024-02-21T03:52:40;8.20;99.90
17202;DHT22;8717;53.588;10.176;2024-02-21T03:55:08;8.20;99.90
17202;DHT22;8717;53.588;10.176;2024-02-21T03:57:34;8.20;99.90
17202;DHT22;8717;53.588;10.176;2024-02-21T04:00:01;8.20;99.90
17202;DHT22;8717;53.588;10.176;2024-02-21T04:02:33;8.20;99.90
17202;DHT22;8717;53.588;10.176;2024-02-21T04:05:00;8.20;99.90
17202;DHT22;8717;53.588;10.176;2024-02-21T04:07:28;8.20;99.90
17202;DHT22;8717;53.588;10.176;2024-02-21T04:09:55;8.20;99.90
17202;DHT22;8717;53.588;10.176;2024-02-21T04:12:22;8.20;99.90
17202;DHT22;8717;53.588;10.176;2024-02-21T04:14:48;8.20;99.90
17202;DHT22;8717;53.588;10.176;2024-02-21T04:17:15;8.20;99.90
17202;DHT22;8717;53.588;10.176;2024-02-21T04:19:42;8.20;99.90
17202;DHT22;8717;53.588;10.176;2024-02-21T04:22:09;8.20;99.90
17202;DHT22;8717;53.588;10.176;2024-02-21T04:24:37;8.20;99.90
17202;DHT22;8717;53.588;10.176;2024-02-21T04:27:04;8.20;99.90
17202;DHT22;8717;53.588;10.176;2024-02-21T04:29:31;8.20;99.90
17202;DHT22;8717;53.588;10.176;2024-02-21T04:31:58;8.20;99.90
17202;DHT22;8717;53.588;10.176;2024-02-21T04:34:25;8.20;99.90
17202;DHT22;8717;53.588;10.176;2024-02-21T04:36:52;8.20;99.90
17202;DHT22;8717;53.588;10.176;2024-02-21T04:39:18;8.10;99.90
17202;DHT22;8717;53.588;10.176;2024-02-21T04:41:47;8.10;99.90
17202;DHT22;8717;53.588;10.176;2024-02-21T04:44:13;8.10;99.90
17202;DHT22;8717;53.588;10.176;2024-02-21T04:46:42;8.10;99.90
17202;DHT22;8717;53.588;10.176;2024-02-21T04:49:09;8.10;99.90
17202;DHT22;8717;53.588;10.176;2024-02-21T04:51:35;8.10;99.90
17202;DHT22;8717;53.588;10.176;2024-02-21T04:54:02;8.10;99.90
17202;DHT22;8717;53.588;10.176;2024-02-21T04:56:29;8.00;99.90
17202;DHT22;8717;53.588;10.176;2024-02-21T04:58:57;8.00;99.90
17202;DHT22;8717;53.588;10.176;2024-02-21T05:01:24;8.00;99.90
17202;DHT22;8717;53.588;10.176;2024-02-21T05:03:51;8.00;99.90
17202;DHT22;8717;53.588;10.176;2024-02-21T05:06:18;8.00;99.90
17202;DHT22;8717;53.588;10.176;2024-02-21T05:08:44;8.00;99.90
17202;DHT22;8717;53.588;10.176;2024-02-21T05:11:11;8.00;99.90
17202;DHT22;8717;53.588;10.176;2024-02-21T05:13:38;8.00;99.90
17202;DHT22;8717;53.588;10.176;2024-02-21T05:16:06;8.00;99.90
17202;DHT22;8717;53.588;10.176;2024-02-21T05:18:33;7.90;99.90
17202;DHT22;8717;53.588;10.176;2024-02-21T05:21:01;7.90;99.90
17202;DHT22;8717;53.588;10.176;2024-02-21T05:23:28;7.90;99.90
17202;DHT22;8717;53.588;10.176;2024-02-21T05:25:54;7.90;99.90
17202;DHT22;8717;53.588;10.176;2024-02-21T05:28:21;7.90;99.90
17202;DHT22;8717;53.588;10.176;2024-02-21T05:30:48;7.90;99.90
17202;DHT22;8717;53.588;10.176;2024-02-21T05:33:16;7.90;99.90
17202;DHT22;8717;53.588;10.176;2024-02-21T05:35:46;7.90;99.90
17202;DHT22;8717;53.588;10.176;2024-02-21T05:38:14;7.90;99.90
17202;DHT22;8717;53.588;10.176;2024-02-21T05:40:41;7.90;99.90
17202;DHT22;8717;53.588;10.176;2024-02-21T05:43:08;7.90;99.90
17202;DHT22;8717;53.588;10.176;2024-02-21T05:45:36;7.90;99.90
17202;DHT22;8717;53.588;10.176;2024-02-21T05:48:03;7.90;99.90
17202;DHT22;8717;53.588;10.176;2024-02-21T05:50:32;7.90;99.90
17202;DHT22;8717;53.588;10.176;2024-02-21T05:52:58;7.90;99.90
17202;DHT22;8717;53.588;10.176;2024-02-21T05:55:25;7.90;99.90
17202;DHT22;8717;53.588;10.176;2024-02-21T05:57:53;7.90;99.90
17202;DHT22;8717;53.588;10.176;2024-02-21T06:00:20;7.90;99.90
17202;DHT22;8717;53.588;10.176;2024-02-21T06:02:47;7.90;99.90
17202;DHT22;8717;53.588;10.176;2024-02-21T06:05:14;7.90;99.90
17202;DHT22;8717;53.588;10.176;2024-02-21T06:07:42;7.90;99.90
17202;DHT22;8717;53.588;10.176;2024-02-21T06:10:09;7.90;99.90
17202;DHT22;8717;53.588;10.176;2024-02-21T06:12:36;7.90;99.90
17202;DHT22;8717;53.588;10.176;2024-02-21T06:15:03;7.90;99.90
17202;DHT22;8717;53.588;10.176;2024-02-21T06:17:30;7.90;99.90
17202;DHT22;8717;53.588;10.176;2024-02-21T06:19:56;7.90;99.90
17202;DHT22;8717;53.588;10.176;2024-02-21T06:22:23;7.90;99.90
17202;DHT22;8717;53.588;10.176;2024-02-21T06:24:51;7.90;99.90
17202;DHT22;8717;53.588;10.176;2024-02-21T06:27:19;7.90;99.90
17202;DHT22;8717;53.588;10.176;2024-02-21T06:29:46;7.90;99.90
17202;DHT22;8717;53.588;10.176;2024-02-21T06:32:13;7.90;99.90
17202;DHT22;8717;53.588;10.176;2024-02-21T06:34:39;7.90;99.90
17202;DHT22;8717;53.588;10.176;2024-02-21T06:37:06;7.90;99.90
17202;DHT22;8717;53.588;10.176;2024-02-21T06:39:34;7.90;99.90
17202;DHT22;8717;53.588;10.176;2024-02-21T06:42:04;7.90;99.90
17202;DHT22;8717;53.588;10.176;2024-02-21T06:44:31;7.90;99.90
17202;DHT22;8717;53.588;10.176;2024-02-21T06:47:02;7.90;99.90
17202;DHT22;8717;53.588;10.176;2024-02-21T06:49:29;7.90;99.90
17202;DHT22;8717;53.588;10.176;2024-02-21T06:51:55;7.90;99.90
17202;DHT22;8717;53.588;10.176;2024-02-21T06:54:22;7.90;99.90
17202;DHT22;8717;53.588;10.176;2024-02-21T06:56:49;7.90;99.90
17202;DHT22;8717;53.588;10.176;2024-02-21T06:59:17;7.90;99.90
17202;DHT22;8717;53.588;10.176;2024-02-21T07:01:45;7.90;99.90
17202;DHT22;8717;53.588;10.176;2024-02-21T07:04:12;7.90;99.90
17202;DHT22;8717;53.588;10.176;2024-02-21T07:06:39;8.00;99.90
17202;DHT22;8717;53.588;10.176;2024-02-21T07:09:06;8.00;99.90
17202;DHT22;8717;53.588;10.176;2024-02-21T07:11:33;8.00;99.90
17202;DHT22;8717;53.588;10.176;2024-02-21T07:13:59;8.00;99.90
17202;DHT22;8717;53.588;10.176;2024-02-21T07:16:27;8.00;99.90
17202;DHT22;8717;53.588;10.176;2024-02-21T07:18:55;8.00;99.90
17202;DHT22;8717;53.588;10.176;2024-02-21T07:21:22;8.10;99.90
17202;DHT22;8717;53.588;10.176;2024-02-21T07:23:48;8.10;99.90
17202;DHT22;8717;53.588;10.176;2024-02-21T07:26:15;8.10;99.90
17202;DHT22;8717;53.588;10.176;2024-02-21T07:28:42;8.10;99.90
17202;DHT22;8717;53.588;10.176;2024-02-21T07:31:09;8.10;99.90
17202;DHT22;8717;53.588;10.176;2024-02-21T07:33:37;8.10;99.90
17202;DHT22;8717;53.588;10.176;2024-02-21T07:36:06;8.10;99.90
17202;DHT22;8717;53.588;10.176;2024-02-21T07:38:33;8.20;99.90
17202;DHT22;8717;53.588;10.176;2024-02-21T07:40:59;8.10;99.90
17202;DHT22;8717;53.588;10.176;2024-02-21T07:43:26;8.10;99.90
17202;DHT22;8717;53.588;10.176;2024-02-21T07:45:53;8.10;99.90
17202;DHT22;8717;53.588;10.176;2024-02-21T07:48:21;8.10;99.90
17202;DHT22;8717;53.588;10.176;2024-02-21T07:50:51;8.20;99.90
17202;DHT22;8717;53.588;10.176;2024-02-21T07:53:19;8.20;99.90
17202;DHT22;8717;53.588;10.176;2024-02-21T07:55:46;8.20;99.90
17202;DHT22;8717;53.588;10.176;2024-02-21T07:58:12;8.20;99.90
17202;DHT22;8717;53.588;10.176;2024-02-21T08:00:39;8.20;99.90
17202;DHT22;8717;53.588;10.176;2024-02-21T08:03:06;8.20;99.90
17202;DHT22;8717;53.588;10.176;2024-02-21T08:05:34;8.30;99.90
17202;DHT22;8717;53.588;10.176;2024-02-21T08:08:02;8.30;99.90
17202;DHT22;8717;53.588;10.176;2024-02-21T08:10:29;8.30;99.90
17202;DHT22;8717;53.588;10.176;2024-02-21T08:12:56;8.30;99.90
17202;DHT22;8717;53.588;10.176;2024-02-21T08:15:23;8.40;99.90
17202;DHT22;8717;53.588;10.176;2024-02-21T08:17:54;8.40;99.90
17202;DHT22;8717;53.588;10.176;2024-02-21T08:20:24;8.40;99.90
17202;DHT22;8717;53.588;10.176;2024-02-21T08:22:51;8.40;99.90
17202;DHT22;8717;53.588;10.176;2024-02-21T08:25:19;8.40;99.90
17202;DHT22;8717;53.588;10.176;2024-02-21T08:27:46;8.40;99.90
17202;DHT22;8717;53.588;10.176;2024-02-21T08:30:13;8.50;99.90
17202;DHT22;8717;53.588;10.176;2024-02-21T08:32:40;8.50;99.90
17202;DHT22;8717;53.588;10.176;2024-02-21T08:35:07;8.50;99.90
17202;DHT22;8717;53.588;10.176;2024-02-21T08:37:34;8.50;99.90
17202;DHT22;8717;53.588;10.176;2024-02-21T08:40:01;8.60;99.90
17202;DHT22;8717;53.588;10.176;2024-02-21T08:42:35;8.60;99.90
17202;DHT22;8717;53.588;10.176;2024-02-21T08:45:02;8.60;99.90
17202;DHT22;8717;53.588;10.176;2024-02-21T08:47:28;8.70;99.90
17202;DHT22;8717;53.588;10.176;2024-02-21T08:49:55;8.70;99.90
17202;DHT22;8717;53.588;10.176;2024-02-21T08:52:22;8.70;99.90
17202;DHT22;8717;53.588;10.176;2024-02-21T08:54:49;8.70;99.90
17202;DHT22;8717;53.588;10.176;2024-02-21T08:57:19;8.70;99.90
17202;DHT22;8717;53.588;10.176;2024-02-21T08:59:47;8.80;99.90
17202;DHT22;8717;53.588;10.176;2024-02-21T09:02:14;8.80;99.90
17202;DHT22;8717;53.588;10.176;2024-02-21T09:04:41;8.80;99.90
17202;DHT22;8717;53.588;10.176;2024-02-21T09:07:09;8.80;99.90
17202;DHT22;8717;53.588;10.176;2024-02-21T09:09:36;8.90;99.90
17202;DHT22;8717;53.588;10.176;2024-02-21T09:12:04;8.90;99.90
17202;DHT22;8717;53.588;10.176;2024-02-21T09:14:32;8.90;99.90
17202;DHT22;8717;53.588;10.176;2024-02-21T09:17:00;8.90;99.90
17202;DHT22;8717;53.588;10.176;2024-02-21T09:19:27;8.90;99.90
17202;DHT22;8717;53.588;10.176;2024-02-21T09:21:53;9.00;99.90
17202;DHT22;8717;53.588;10.176;2024-02-21T09:24:20;9.00;99.90
17202;DHT22;8717;53.588;10.176;2024-02-21T09:26:47;9.00;99.90
17202;DHT22;8717;53.588;10.176;2024-02-21T09:29:14;9.00;99.90
17202;DHT22;8717;53.588;10.176;2024-02-21T09:31:42;9.00;99.90
17202;DHT22;8717;53.588;10.176;2024-02-21T09:34:10;9.00;99.90
17202;DHT22;8717;53.588;10.176;2024-02-21T09:36:37;9.00;99.90
17202;DHT22;8717;53.588;10.176;2024-02-21T09:39:05;9.00;99.90
17202;DHT22;8717;53.588;10.176;2024-02-21T09:41:35;9.00;99.90
17202;DHT22;8717;53.588;10.176;2024-02-21T09:44:05;9.10;99.90
17202;DHT22;8717;53.588;10.176;2024-02-21T09:46:42;9.10;99.90
17202;DHT22;8717;53.588;10.176;2024-02-21T09:49:21;9.00;99.90
17202;DHT22;8717;53.588;10.176;2024-02-21T09:51:51;9.00;99.90
17202;DHT22;8717;53.588;10.176;2024-02-21T09:54:20;9.00;99.90
17202;DHT22;8717;53.588;10.176;2024-02-21T09:56:48;9.00;99.90
17202;DHT22;8717;53.588;10.176;2024-02-21T09:59:15;9.00;99.90
17202;DHT22;8717;53.588;10.176;2024-02-21T10:01:42;9.00;99.90
17202;DHT22;8717;53.588;10.176;2024-02-21T10:04:09;9.00;99.90
17202;DHT22;8717;53.588;10.176;2024-02-21T10:06:37;9.00;99.90
17202;DHT22;8717;53.588;10.176;2024-02-21T10:09:06;9.00;99.90
17202;DHT22;8717;53.588;10.176;2024-02-21T10:11:32;9.00;99.90
17202;DHT22;8717;53.588;10.176;2024-02-21T10:14:04;9.00;99.90
17202;DHT22;8717;53.588;10.176;2024-02-21T10:16:31;9.00;99.90
17202;DHT22;8717;53.588;10.176;2024-02-21T10:18:59;9.00;99.90
17202;DHT22;8717;53.588;10.176;2024-02-21T10:21:25;9.10;99.90
17202;DHT22;8717;53.588;10.176;2024-02-21T10:23:54;9.00;99.90
17202;DHT22;8717;53.588;10.176;2024-02-21T10:26:21;9.00;99.90
17202;DHT22;8717;53.588;10.176;2024-02-21T10:28:47;9.00;99.90
17202;DHT22;8717;53.588;10.176;2024-02-21T10:31:24;9.00;99.90
17202;DHT22;8717;53.588;10.176;2024-02-21T10:33:55;8.90;99.90
17202;DHT22;8717;53.588;10.176;2024-02-21T10:36:22;8.90;99.90
17202;DHT22;8717;53.588;10.176;2024-02-21T10:38:50;8.90;99.90
17202;DHT22;8717;53.588;10.176;2024-02-21T10:41:20;8.90;99.90
17202;DHT22;8717;53.588;10.176;2024-02-21T10:43:50;8.90;99.90
17202;DHT22;8717;53.588;10.176;2024-02-21T10:46:19;8.90;99.90
17202;DHT22;8717;53.588;10.176;2024-02-21T10:48:47;8.90;99.90
17202;DHT22;8717;53.588;10.176;2024-02-21T10:51:17;8.90;99.90
17202;DHT22;8717;53.588;10.176;2024-02-21T10:53:50;8.80;99.90
17202;DHT22;8717;53.588;10.176;2024-02-21T10:56:24;8.80;99.90
17202;DHT22;8717;53.588;10.176;2024-02-21T10:58:52;8.80;99.90
17202;DHT22;8717;53.588;10.176;2024-02-21T11:01:21;8.80;99.90
17202;DHT22;8717;53.588;10.176;2024-02-21T11:03:53;8.80;99.90
17202;DHT22;8717;53.588;10.176;2024-02-21T11:06:21;8.80;99.90
17202;DHT22;8717;53.588;10.176;2024-02-21T11:09:00;8.80;99.90
17202;DHT22;8717;53.588;10.176;2024-02-21T11:11:29;8.90;99.90
17202;DHT22;8717;53.588;10.176;2024-02-21T11:14:04;8.90;99.90
17202;DHT22;8717;53.588;10.176;2024-02-21T11:16:35;8.90;99.90
17202;DHT22;8717;53.588;10.176;2024-02-21T11:19:07;8.90;99.90
17202;DHT22;8717;53.588;10.176;2024-02-21T11:21:35;8.90;99.90
17202;DHT22;8717;53.588;10.176;2024-02-21T11:24:02;8.90;99.90
17202;DHT22;8717;53.588;10.176;2024-02-21T11:26:31;8.80;99.90
17202;DHT22;8717;53.588;10.176;2024-02-21T11:28:59;8.80;99.90
17202;DHT22;8717;53.588;10.176;2024-02-21T11:31:26;8.80;99.90
17202;DHT22;8717;53.588;10.176;2024-02-21T11:33:53;8.80;99.90
17202;DHT22;8717;53.588;10.176;2024-02-21T11:36:24;8.70;99.90
17202;DHT22;8717;53.588;10.176;2024-02-21T11:38:51;8.70;99.90
17202;DHT22;8717;53.588;10.176;2024-02-21T11:41:18;8.70;99.90
17202;DHT22;8717;53.588;10.176;2024-02-21T11:43:48;8.70;99.90
17202;DHT22;8717;53.588;10.176;2024-02-21T11:46:16;8.70;99.90
17202;DHT22;8717;53.588;10.176;2024-02-21T11:48:43;8.70;99.90
17202;DHT22;8717;53.588;10.176;2024-02-21T11:51:21;8.70;99.90
17202;DHT22;8717;53.588;10.176;2024-02-21T11:53:48;8.70;99.90
17202;DHT22;8717;53.588;10.176;2024-02-21T11:56:15;8.70;99.90
17202;DHT22;8717;53.588;10.176;2024-02-21T11:58:41;8.60;99.90
17202;DHT22;8717;53.588;10.176;2024-02-21T12:01:10;8.60;99.90
17202;DHT22;8717;53.588;10.176;2024-02-21T12:03:37;8.60;99.90
17202;DHT22;8717;53.588;10.176;2024-02-21T12:06:06;8.60;99.90
17202;DHT22;8717;53.588;10.176;2024-02-21T12:08:41;8.60;99.90
17202;DHT22;8717;53.588;10.176;2024-02-21T12:11:19;8.60;99.90
17202;DHT22;8717;53.588;10.176;2024-02-21T12:13:46;8.60;99.90
17202;DHT22;8717;53.588;10.176;2024-02-21T12:16:16;8.60;99.90
17202;DHT22;8717;53.588;10.176;2024-02-21T12:18:44;8.60;99.90
17202;DHT22;8717;53.588;10.176;2024-02-21T12:21:11;8.60;99.90
17202;DHT22;8717;53.588;10.176;2024-02-21T12:23:39;8.60;99.90
17202;DHT22;8717;53.588;10.176;2024-02-21T12:26:06;8.60;99.90
17202;DHT22;8717;53.588;10.176;2024-02-21T12:28:33;8.60;99.90
17202;DHT22;8717;53.588;10.176;2024-02-21T12:31:00;8.60;99.90
17202;DHT22;8717;53.588;10.176;2024-02-21T12:33:31;8.60;99.90
17202;DHT22;8717;53.588;10.176;2024-02-21T12:35:58;8.60;99.90
17202;DHT22;8717;53.588;10.176;2024-02-21T12:38:25;8.70;99.90
17202;DHT22;8717;53.588;10.176;2024-02-21T12:40:52;8.60;99.90
17202;DHT22;8717;53.588;10.176;2024-02-21T12:43:19;8.60;99.90
17202;DHT22;8717;53.588;10.176;2024-02-21T12:45:45;8.70;99.90
17202;DHT22;8717;53.588;10.176;2024-02-21T12:48:12;8.70;99.90
17202;DHT22;8717;53.588;10.176;2024-02-21T12:50:49;8.70;99.90
17202;DHT22;8717;53.588;10.176;2024-02-21T12:53:16;8.70;99.90
17202;DHT22;8717;53.588;10.176;2024-02-21T12:55:44;8.70;99.90
17202;DHT22;8717;53.588;10.176;2024-02-21T12:58:11;8.70;99.90
17202;DHT22;8717;53.588;10.176;2024-02-21T13:00:39;8.70;99.90
17202;DHT22;8717;53.588;10.176;2024-02-21T13:03:06;8.70;99.90
17202;DHT22;8717;53.588;10.176;2024-02-21T13:05:33;8.70;99.90
17202;DHT22;8717;53.588;10.176;2024-02-21T13:08:01;8.70;99.90
17202;DHT22;8717;53.588;10.176;2024-02-21T13:10:28;8.70;99.90
17202;DHT22;8717;53.588;10.176;2024-02-21T13:12:55;8.70;99.90
17202;DHT22;8717;53.588;10.176;2024-02-21T13:15:22;8.70;99.90
17202;DHT22;8717;53.588;10.176;2024-02-21T13:17:48;8.70;99.90
17202;DHT22;8717;53.588;10.176;2024-02-21T13:20:15;8.70;99.90
17202;DHT22;8717;53.588;10.176;2024-02-21T13:22:42;8.70;99.90
17202;DHT22;8717;53.588;10.176;2024-02-21T13:25:10;8.70;99.90
17202;DHT22;8717;53.588;10.176;2024-02-21T13:27:40;8.70;99.90
17202;DHT22;8717;53.588;10.176;2024-02-21T13:30:08;8.80;99.90
17202;DHT22;8717;53.588;10.176;2024-02-21T13:32:35;8.80;99.90
17202;DHT22;8717;53.588;10.176;2024-02-21T13:35:02;8.80;99.90
17202;DHT22;8717;53.588;10.176;2024-02-21T13:37:29;8.90;99.90
17202;DHT22;8717;53.588;10.176;2024-02-21T13:39:56;8.90;99.90
17202;DHT22;8717;53.588;10.176;2024-02-21T13:42:24;8.90;99.90
17202;DHT22;8717;53.588;10.176;2024-02-21T13:44:53;9.00;99.90
17202;DHT22;8717;53.588;10.176;2024-02-21T13:47:20;9.00;99.90
17202;DHT22;8717;53.588;10.176;2024-02-21T13:49:48;9.10;99.90
17202;DHT22;8717;53.588;10.176;2024-02-21T13:52:15;9.20;99.90
17202;DHT22;8717;53.588;10.176;2024-02-21T13:54:42;9.20;99.90
17202;DHT22;8717;53.588;10.176;2024-02-21T13:57:09;9.20;99.90
17202;DHT22;8717;53.588;10.176;2024-02-21T13:59:37;9.20;99.90
17202;DHT22;8717;53.588;10.176;2024-02-21T14:02:05;9.20;99.90
17202;DHT22;8717;53.588;10.176;2024-02-21T14:04:33;9.30;99.90
17202;DHT22;8717;53.588;10.176;2024-02-21T14:07:00;9.30;99.90
17202;DHT22;8717;53.588;10.176;2024-02-21T14:09:27;9.30;99.90
17202;DHT22;8717;53.588;10.176;2024-02-21T14:11:55;9.40;99.90
17202;DHT22;8717;53.588;10.176;2024-02-21T14:14:22;9.40;99.90
17202;DHT22;8717;53.588;10.176;2024-02-21T14:16:50;9.40;99.90
17202;DHT22;8717;53.588;10.176;2024-02-21T14:19:16;9.40;99.90
17202;DHT22;8717;53.588;10.176;2024-02-21T14:21:44;9.30;99.90
17202;DHT22;8717;53.588;10.176;2024-02-21T14:24:11;9.40;99.90
17202;DHT22;8717;53.588;10.176;2024-02-21T14:26:38;9.40;99.90
17202;DHT22;8717;53.588;10.176;2024-02-21T14:29:06;9.40;99.90
17202;DHT22;8717;53.588;10.176;2024-02-21T14:31:33;9.40;99.90
17202;DHT22;8717;53.588;10.176;2024-02-21T14:34:01;9.40;99.90
17202;DHT22;8717;53.588;10.176;2024-02-21T14:36:28;9.40;99.90
17202;DHT22;8717;53.588;10.176;2024-02-21T14:38:55;9.40;99.90
17202;DHT22;8717;53.588;10.176;2024-02-21T14:41:22;9.50;99.90
17202;DHT22;8717;53.588;10.176;2024-02-21T14:43:50;9.50;99.90
17202;DHT22;8717;53.588;10.176;2024-02-21T14:46:17;9.50;99.90
17202;DHT22;8717;53.588;10.176;2024-02-21T14:48:44;9.50;99.90
17202;DHT22;8717;53.588;10.176;2024-02-21T14:51:12;9.50;99.90
17202;DHT22;8717;53.588;10.176;2024-02-21T14:53:39;9.50;99.90
17202;DHT22;8717;53.588;10.176;2024-02-21T14:56:12;9.50;99.90
17202;DHT22;8717;53.588;10.176;2024-02-21T14:58:40;9.40;99.90
17202;DHT22;8717;53.588;10.176;2024-02-21T15:01:07;9.50;99.90
17202;DHT22;8717;53.588;10.176;2024-02-21T15:03:34;9.40;99.90
17202;DHT22;8717;53.588;10.176;2024-02-21T15:06:01;9.40;99.90
17202;DHT22;8717;53.588;10.176;2024-02-21T15:08:30;9.40;99.90
17202;DHT22;8717;53.588;10.176;2024-02-21T15:10:56;9.40;99.90
17202;DHT22;8717;53.588;10.176;2024-02-21T15:13:23;9.40;99.90
17202;DHT22;8717;53.588;10.176;2024-02-21T15:15:51;9.40;99.90
17202;DHT22;8717;53.588;10.176;2024-02-21T15:18:18;9.40;99.90
17202;DHT22;8717;53.588;10.176;2024-02-21T15:20:45;9.40;99.90
17202;DHT22;8717;53.588;10.176;2024-02-21T15:23:11;9.30;99.90
17202;DHT22;8717;53.588;10.176;2024-02-21T15:25:40;9.30;99.90
17202;DHT22;8717;53.588;10.176;2024-02-21T15:28:07;9.30;99.90
17202;DHT22;8717;53.588;10.176;2024-02-21T15:30:33;9.20;99.90
17202;DHT22;8717;53.588;10.176;2024-02-21T15:33:00;9.20;99.90
17202;DHT22;8717;53.588;10.176;2024-02-21T15:35:27;9.20;99.90
17202;DHT22;8717;53.588;10.176;2024-02-21T15:37:55;9.10;99.90
17202;DHT22;8717;53.588;10.176;2024-02-21T15:40:22;9.10;99.90
17202;DHT22;8717;53.588;10.176;2024-02-21T15:42:50;9.00;99.90
17202;DHT22;8717;53.588;10.176;2024-02-21T15:45:17;9.00;99.90
17202;DHT22;8717;53.588;10.176;2024-02-21T15:47:43;9.00;99.90